Aviation Digital Data Service (ADDS)

Output produced by METARs form (0625 UTC 19 March 2019)
found at http://www.aviationweather.gov/metar/data/
 
UATE 190600Z 01008MPS 9999 OVC011 04/00 Q1023 R30/0///70 NOSIG RMK QFE766/1021
TAF UATE 190506Z 1906/2006 01008G14MPS 9999 BKN007 SCT020CB TX06/1910Z
TN01/2002Z
       
UACC 190600Z 07006MPS 050V110 CAVOK M08/M11 Q1029 R04/0///70 NOSIG RMK QFE740/0987
TAF UACC 190500Z 1906/2006 08006MPS 9999 NSC TXM02/1909Z TNM10/2001Z 
     TEMPO 1906/1913 10007G12MPS 
     TEMPO 1913/1921 3100 BR FEW005 
     TEMPO 1921/2004 3100 BR FEW005
       
UATG 190600Z 35006MPS 5000 BR BKN010 BKN030CB 01/M02 Q1024 R32/CLRD70 NOSIG RMK QFE770/1027
TAF UATG 190500Z 1906/2006 36008MPS 5000 BR BKN011 BKN020CB TX09/1910Z
TN01/2003Z 
     TEMPO 1906/1910 BKN005
       
UAAH 190600Z 07011MPS CAVOK M01/M08 Q1021 NOSIG RMK QFE729/0972
TAF UAAH 190500Z 1906/1915 05013MPS CAVOK
       
UAKK 190600Z 09009MPS CAVOK M07/M11 Q1026 R05/910565 NOSIG RMK QFE722/0962
TAF UAKK 190500Z 1906/2006 08007MPS 9999 NSC TXM02/1909Z TNM14/1923Z 
     TEMPO 1906/1912 09010MPS
       
UAUU 190600Z 11004MPS CAVOK M05/M10 Q1029 R15/CLRD60 NOSIG RMK QFE755/1007
TAF UAUU 190500Z 1906/1915 08003MPS 9999 SCT011
       
UASS 190600Z 01003MPS 330V040 CAVOK M04/M11 Q1030 R08/82//60 NOSIG RMK QFE751/1002
TAF UASS 190500Z 1906/1915 02005G10MPS 9999 SCT030 SCT100
       
UAII 190600Z 24008MPS 9999 SCT050CB OVC100 16/04 Q1011 R28/0///70 NOSIG RMK QFE721/0961
TAF UAII 190500Z 1906/2006 18004G09MPS 6000 SCT050CB BKN100 TX20/1909Z
TN08/2001Z 
     TEMPO 1906/1915 23010G15MPS -SHRA BKN033CB OVC100 
     TEMPO 1915/1924 20007MPS 4000 -SHRA BR BKN015 OVC030CB 
     TEMPO 2000/2006 16005MPS 2000 SHRA BR BKN012 OVC030CB
       
UARR 190600Z 36006MPS 9999 BKN032 BKN083 M01/M02 Q1027 R04/720360 NOSIG RMK QFE767/1023
TAF UARR 190502Z 1906/1915 01005MPS 9999 BKN020 
     TEMPO 1912/1915 3100 BR BKN011
       
UASK 190600Z VRB01MPS 5000 BR NSC M06/M09 Q1028 R30/090060 NOSIG RMK QFE745/0994
TAF UASK 190502Z 1906/1915 VRB01MPS 7000 NSC 
     TEMPO 1906/1912 3100 BR FEW008
       
UAKD 190600Z 06008MPS CAVOK M06/M10 Q1022 R04/0///60 NOSIG RMK QFE732/0977
TAF UAKD 190500Z 1906/1915 05008MPS 9999 NSC 
     TEMPO 1906/1912 08012MPS SCT011 
     TEMPO 1912/1915 08012MPS